sensor_id;sensor_type;location;lat;lon;timestamp;pressure;altitude;pressure_sealevel;temperature;humidity
6668;BME280;3370;47.712;9.082;2022-10-01T00:02:12;96936.44;;;7.01;100.00
6668;BME280;3370;47.712;9.082;2022-10-01T00:04:37;96934.22;;;6.90;100.00
6668;BME280;3370;47.712;9.082;2022-10-01T00:07:05;96942.88;;;6.86;100.00
6668;BME280;3370;47.712;9.082;2022-10-01T00:09:34;96940.78;;;6.99;100.00
6668;BME280;3370;47.712;9.082;2022-10-01T00:12:00;96946.75;;;6.98;100.00
6668;BME280;3370;47.712;9.082;2022-10-01T00:14:26;96934.44;;;6.84;100.00
6668;BME280;3370;47.712;9.082;2022-10-01T00:16:53;96937.16;;;6.78;100.00
6668;BME280;3370;47.712;9.082;2022-10-01T00:19:18;96933.75;;;6.79;100.00
6668;BME280;3370;47.712;9.082;2022-10-01T00:21:45;96930.88;;;6.88;100.00
6668;BME280;3370;47.712;9.082;2022-10-01T00:24:12;96941.16;;;7.13;100.00
6668;BME280;3370;47.712;9.082;2022-10-01T00:26:40;96934.00;;;7.23;100.00
6668;BME280;3370;47.712;9.082;2022-10-01T00:29:12;96929.59;;;7.01;100.00
6668;BME280;3370;47.712;9.082;2022-10-01T00:31:38;96938.16;;;6.74;100.00
6668;BME280;3370;47.712;9.082;2022-10-01T00:34:04;96928.09;;;6.69;100.00
6668;BME280;3370;47.712;9.082;2022-10-01T00:36:31;96934.59;;;6.78;100.00
6668;BME280;3370;47.712;9.082;2022-10-01T00:38:58;96932.09;;;6.76;100.00
6668;BME280;3370;47.712;9.082;2022-10-01T00:41:32;96932.84;;;6.80;100.00
6668;BME280;3370;47.712;9.082;2022-10-01T00:44:32;96943.53;;;6.93;100.00
6668;BME280;3370;47.712;9.082;2022-10-01T00:49:43;96941.13;;;6.88;100.00
6668;BME280;3370;47.712;9.082;2022-10-01T00:52:15;96940.91;;;6.94;100.00
6668;BME280;3370;47.712;9.082;2022-10-01T00:54:47;96953.56;;;6.99;100.00
6668;BME280;3370;47.712;9.082;2022-10-01T00:57:19;96946.75;;;6.98;100.00
6668;BME280;3370;47.712;9.082;2022-10-01T00:59:47;96944.06;;;7.02;100.00
6668;BME280;3370;47.712;9.082;2022-10-01T01:02:14;96941.75;;;6.95;100.00
6668;BME280;3370;47.712;9.082;2022-10-01T01:04:40;96942.19;;;7.07;100.00
6668;BME280;3370;47.712;9.082;2022-10-01T01:07:07;96945.22;;;6.92;100.00
6668;BME280;3370;47.712;9.082;2022-10-01T01:09:37;96938.25;;;6.70;100.00
6668;BME280;3370;47.712;9.082;2022-10-01T01:15:14;96940.81;;;6.70;100.00
6668;BME280;3370;47.712;9.082;2022-10-01T01:20:49;96917.41;;;6.56;100.00
6668;BME280;3370;47.712;9.082;2022-10-01T01:28:36;96910.13;;;6.70;100.00
6668;BME280;3370;47.712;9.082;2022-10-01T01:31:11;96913.56;;;6.71;100.00
6668;BME280;3370;47.712;9.082;2022-10-01T01:33:39;96929.63;;;6.75;100.00
6668;BME280;3370;47.712;9.082;2022-10-01T01:36:12;96923.19;;;6.89;100.00
6668;BME280;3370;47.712;9.082;2022-10-01T01:38:46;96915.25;;;6.97;100.00
6668;BME280;3370;47.712;9.082;2022-10-01T01:41:18;96917.03;;;6.95;100.00
6668;BME280;3370;47.712;9.082;2022-10-01T01:43:47;96924.38;;;6.78;100.00
6668;BME280;3370;47.712;9.082;2022-10-01T01:46:17;96907.84;;;6.89;100.00
6668;BME280;3370;47.712;9.082;2022-10-01T01:48:45;96912.31;;;6.83;100.00
6668;BME280;3370;47.712;9.082;2022-10-01T01:51:55;96922.41;;;6.59;100.00
6668;BME280;3370;47.712;9.082;2022-10-01T01:54:24;96921.34;;;6.66;100.00
6668;BME280;3370;47.712;9.082;2022-10-01T01:56:50;96922.63;;;6.80;100.00
6668;BME280;3370;47.712;9.082;2022-10-01T01:59:18;96922.34;;;6.89;100.00
6668;BME280;3370;47.712;9.082;2022-10-01T02:01:44;96923.25;;;6.86;100.00
6668;BME280;3370;47.712;9.082;2022-10-01T02:07:38;96908.75;;;6.87;100.00
6668;BME280;3370;47.712;9.082;2022-10-01T02:10:30;96912.94;;;6.89;100.00
6668;BME280;3370;47.712;9.082;2022-10-01T02:13:23;96911.38;;;6.85;100.00
6668;BME280;3370;47.712;9.082;2022-10-01T02:16:18;96908.88;;;6.84;100.00
6668;BME280;3370;47.712;9.082;2022-10-01T02:19:10;96903.75;;;6.84;100.00
6668;BME280;3370;47.712;9.082;2022-10-01T02:22:23;96904.72;;;6.80;100.00
6668;BME280;3370;47.712;9.082;2022-10-01T02:24:58;96900.31;;;6.85;100.00
6668;BME280;3370;47.712;9.082;2022-10-01T02:27:39;96893.25;;;6.93;100.00
6668;BME280;3370;47.712;9.082;2022-10-01T02:30:10;96881.19;;;6.97;100.00
6668;BME280;3370;47.712;9.082;2022-10-01T02:32:43;96880.72;;;7.10;100.00
6668;BME280;3370;47.712;9.082;2022-10-01T02:35:15;96877.53;;;7.04;100.00
6668;BME280;3370;47.712;9.082;2022-10-01T02:37:44;96873.44;;;7.00;100.00
6668;BME280;3370;47.712;9.082;2022-10-01T02:40:20;96869.44;;;6.91;100.00
6668;BME280;3370;47.712;9.082;2022-10-01T02:42:50;96870.78;;;7.01;100.00
6668;BME280;3370;47.712;9.082;2022-10-01T02:45:20;96868.19;;;7.03;100.00
6668;BME280;3370;47.712;9.082;2022-10-01T02:47:55;96869.00;;;7.03;100.00
6668;BME280;3370;47.712;9.082;2022-10-01T02:50:23;96869.22;;;6.97;100.00
6668;BME280;3370;47.712;9.082;2022-10-01T02:53:09;96871.16;;;6.90;100.00
6668;BME280;3370;47.712;9.082;2022-10-01T02:55:38;96861.78;;;6.91;100.00
6668;BME280;3370;47.712;9.082;2022-10-01T02:58:06;96860.16;;;6.88;100.00
6668;BME280;3370;47.712;9.082;2022-10-01T03:00:32;96864.53;;;6.85;100.00
6668;BME280;3370;47.712;9.082;2022-10-01T03:02:58;96860.28;;;6.85;100.00
6668;BME280;3370;47.712;9.082;2022-10-01T03:05:24;96859.22;;;6.91;100.00
6668;BME280;3370;47.712;9.082;2022-10-01T03:07:50;96866.00;;;6.92;100.00
6668;BME280;3370;47.712;9.082;2022-10-01T03:10:17;96862.34;;;6.99;100.00
6668;BME280;3370;47.712;9.082;2022-10-01T03:12:44;96870.00;;;6.99;100.00
6668;BME280;3370;47.712;9.082;2022-10-01T03:15:16;96860.84;;;6.94;100.00
6668;BME280;3370;47.712;9.082;2022-10-01T03:17:44;96862.09;;;6.82;100.00
6668;BME280;3370;47.712;9.082;2022-10-01T03:20:10;96851.06;;;6.80;100.00
6668;BME280;3370;47.712;9.082;2022-10-01T03:22:37;96850.97;;;6.83;100.00
6668;BME280;3370;47.712;9.082;2022-10-01T03:25:04;96857.81;;;6.82;100.00
6668;BME280;3370;47.712;9.082;2022-10-01T03:27:30;96855.97;;;6.86;100.00
6668;BME280;3370;47.712;9.082;2022-10-01T03:29:56;96852.75;;;7.06;100.00
6668;BME280;3370;47.712;9.082;2022-10-01T03:32:21;96852.34;;;6.93;100.00
6668;BME280;3370;47.712;9.082;2022-10-01T03:34:47;96849.38;;;7.05;100.00
6668;BME280;3370;47.712;9.082;2022-10-01T03:37:13;96846.69;;;7.08;100.00
6668;BME280;3370;47.712;9.082;2022-10-01T03:39:39;96841.72;;;7.05;100.00
6668;BME280;3370;47.712;9.082;2022-10-01T03:42:05;96845.91;;;7.06;100.00
6668;BME280;3370;47.712;9.082;2022-10-01T03:44:31;96857.03;;;7.05;100.00
6668;BME280;3370;47.712;9.082;2022-10-01T03:46:58;96858.69;;;7.06;100.00
6668;BME280;3370;47.712;9.082;2022-10-01T03:49:24;96854.63;;;7.01;100.00
6668;BME280;3370;47.712;9.082;2022-10-01T03:51:50;96867.47;;;6.99;100.00
6668;BME280;3370;47.712;9.082;2022-10-01T03:54:15;96865.03;;;6.96;100.00
6668;BME280;3370;47.712;9.082;2022-10-01T03:56:42;96874.25;;;7.00;100.00
6668;BME280;3370;47.712;9.082;2022-10-01T03:59:09;96867.06;;;7.12;100.00
6668;BME280;3370;47.712;9.082;2022-10-01T04:01:35;96870.47;;;7.10;100.00
6668;BME280;3370;47.712;9.082;2022-10-01T04:04:01;96861.22;;;7.08;100.00
6668;BME280;3370;47.712;9.082;2022-10-01T04:06:29;96868.41;;;7.22;100.00
6668;BME280;3370;47.712;9.082;2022-10-01T04:08:55;96856.41;;;6.99;100.00
6668;BME280;3370;47.712;9.082;2022-10-01T04:11:21;96860.88;;;6.92;100.00
6668;BME280;3370;47.712;9.082;2022-10-01T04:13:47;96856.44;;;6.97;100.00
6668;BME280;3370;47.712;9.082;2022-10-01T04:16:13;96847.53;;;7.09;100.00
6668;BME280;3370;47.712;9.082;2022-10-01T04:18:40;96855.44;;;7.01;100.00
6668;BME280;3370;47.712;9.082;2022-10-01T04:21:06;96860.94;;;6.90;100.00
6668;BME280;3370;47.712;9.082;2022-10-01T04:23:32;96865.44;;;6.84;100.00
6668;BME280;3370;47.712;9.082;2022-10-01T04:26:00;96862.00;;;6.83;100.00
6668;BME280;3370;47.712;9.082;2022-10-01T04:28:27;96860.38;;;6.82;100.00
6668;BME280;3370;47.712;9.082;2022-10-01T04:30:53;96863.59;;;6.87;100.00
6668;BME280;3370;47.712;9.082;2022-10-01T04:33:39;96858.38;;;6.90;100.00
6668;BME280;3370;47.712;9.082;2022-10-01T04:36:06;96865.91;;;6.95;100.00
6668;BME280;3370;47.712;9.082;2022-10-01T04:38:32;96861.09;;;6.86;100.00
6668;BME280;3370;47.712;9.082;2022-10-01T04:40:58;96874.97;;;6.79;100.00
6668;BME280;3370;47.712;9.082;2022-10-01T04:43:24;96871.59;;;6.78;100.00
6668;BME280;3370;47.712;9.082;2022-10-01T04:45:49;96876.22;;;6.92;100.00
6668;BME280;3370;47.712;9.082;2022-10-01T04:48:15;96864.22;;;6.94;100.00
6668;BME280;3370;47.712;9.082;2022-10-01T04:50:41;96862.97;;;6.81;100.00
6668;BME280;3370;47.712;9.082;2022-10-01T04:53:07;96883.50;;;6.78;100.00
6668;BME280;3370;47.712;9.082;2022-10-01T04:55:32;96883.06;;;6.91;100.00
6668;BME280;3370;47.712;9.082;2022-10-01T04:57:58;96882.19;;;6.93;100.00
6668;BME280;3370;47.712;9.082;2022-10-01T05:00:24;96871.31;;;6.86;100.00
6668;BME280;3370;47.712;9.082;2022-10-01T05:02:51;96883.28;;;6.85;100.00
6668;BME280;3370;47.712;9.082;2022-10-01T05:05:21;96885.25;;;7.02;100.00
6668;BME280;3370;47.712;9.082;2022-10-01T05:07:48;96878.22;;;7.09;100.00
6668;BME280;3370;47.712;9.082;2022-10-01T05:10:18;96872.38;;;7.05;100.00
6668;BME280;3370;47.712;9.082;2022-10-01T05:12:46;96872.16;;;7.12;100.00
6668;BME280;3370;47.712;9.082;2022-10-01T05:15:13;96874.13;;;7.03;100.00
6668;BME280;3370;47.712;9.082;2022-10-01T05:17:39;96872.25;;;7.08;100.00
6668;BME280;3370;47.712;9.082;2022-10-01T05:20:07;96870.38;;;7.14;100.00
6668;BME280;3370;47.712;9.082;2022-10-01T05:22:34;96873.25;;;7.29;100.00
6668;BME280;3370;47.712;9.082;2022-10-01T05:25:00;96864.06;;;7.24;100.00
6668;BME280;3370;47.712;9.082;2022-10-01T05:27:30;96869.75;;;7.32;100.00
6668;BME280;3370;47.712;9.082;2022-10-01T05:29:56;96868.09;;;7.31;100.00
6668;BME280;3370;47.712;9.082;2022-10-01T05:32:22;96858.34;;;7.41;100.00
6668;BME280;3370;47.712;9.082;2022-10-01T05:34:48;96856.31;;;7.74;100.00
6668;BME280;3370;47.712;9.082;2022-10-01T05:37:14;96856.63;;;7.65;100.00
6668;BME280;3370;47.712;9.082;2022-10-01T05:39:40;96854.16;;;7.63;100.00
6668;BME280;3370;47.712;9.082;2022-10-01T05:42:05;96856.13;;;7.79;100.00
6668;BME280;3370;47.712;9.082;2022-10-01T05:44:31;96859.59;;;8.23;100.00
6668;BME280;3370;47.712;9.082;2022-10-01T05:47:04;96852.81;;;8.44;100.00
6668;BME280;3370;47.712;9.082;2022-10-01T05:49:30;96851.25;;;8.62;100.00
6668;BME280;3370;47.712;9.082;2022-10-01T05:51:56;96857.34;;;8.80;100.00
6668;BME280;3370;47.712;9.082;2022-10-01T05:54:26;96859.78;;;9.04;100.00
6668;BME280;3370;47.712;9.082;2022-10-01T05:56:55;96861.25;;;9.10;100.00
6668;BME280;3370;47.712;9.082;2022-10-01T05:59:21;96860.78;;;9.01;100.00
6668;BME280;3370;47.712;9.082;2022-10-01T06:01:46;96854.44;;;9.10;100.00
6668;BME280;3370;47.712;9.082;2022-10-01T06:04:12;96858.59;;;9.13;100.00
6668;BME280;3370;47.712;9.082;2022-10-01T06:06:38;96854.91;;;9.18;100.00
6668;BME280;3370;47.712;9.082;2022-10-01T06:09:04;96852.81;;;9.28;100.00
6668;BME280;3370;47.712;9.082;2022-10-01T06:11:30;96851.91;;;9.29;100.00
6668;BME280;3370;47.712;9.082;2022-10-01T06:13:55;96853.28;;;9.36;100.00
6668;BME280;3370;47.712;9.082;2022-10-01T06:16:21;96865.09;;;9.40;100.00
6668;BME280;3370;47.712;9.082;2022-10-01T06:18:48;96863.38;;;9.41;100.00
6668;BME280;3370;47.712;9.082;2022-10-01T06:21:14;96870.09;;;9.44;100.00
6668;BME280;3370;47.712;9.082;2022-10-01T06:23:40;96872.03;;;9.38;100.00
6668;BME280;3370;47.712;9.082;2022-10-01T06:26:09;96862.91;;;9.52;100.00
6668;BME280;3370;47.712;9.082;2022-10-01T06:28:34;96858.72;;;9.49;99.45
6668;BME280;3370;47.712;9.082;2022-10-01T06:31:02;96863.97;;;9.46;98.74
6668;BME280;3370;47.712;9.082;2022-10-01T06:33:28;96868.56;;;9.39;99.00
6668;BME280;3370;47.712;9.082;2022-10-01T06:35:54;96857.31;;;9.42;100.00
6668;BME280;3370;47.712;9.082;2022-10-01T06:38:22;96866.06;;;9.38;98.52
6668;BME280;3370;47.712;9.082;2022-10-01T06:40:56;96859.06;;;9.42;98.37
6668;BME280;3370;47.712;9.082;2022-10-01T06:43:24;96852.91;;;9.46;100.00
6668;BME280;3370;47.712;9.082;2022-10-01T06:45:50;96871.38;;;9.54;97.22
6668;BME280;3370;47.712;9.082;2022-10-01T06:48:19;96859.72;;;9.47;98.42
6668;BME280;3370;47.712;9.082;2022-10-01T06:50:47;96863.84;;;9.49;98.05
6668;BME280;3370;47.712;9.082;2022-10-01T06:53:15;96861.41;;;9.67;97.66
6668;BME280;3370;47.712;9.082;2022-10-01T06:55:43;96858.19;;;9.62;96.26
6668;BME280;3370;47.712;9.082;2022-10-01T06:58:14;96863.34;;;9.62;95.85
6668;BME280;3370;47.712;9.082;2022-10-01T07:00:41;96862.44;;;9.63;95.76
6668;BME280;3370;47.712;9.082;2022-10-01T07:03:15;96862.22;;;9.67;94.11
6668;BME280;3370;47.712;9.082;2022-10-01T07:05:41;96860.97;;;9.76;94.86
6668;BME280;3370;47.712;9.082;2022-10-01T07:08:08;96855.91;;;9.74;93.46
6668;BME280;3370;47.712;9.082;2022-10-01T07:10:34;96853.06;;;9.81;91.87
6668;BME280;3370;47.712;9.082;2022-10-01T07:13:09;96856.41;;;9.83;93.16
6668;BME280;3370;47.712;9.082;2022-10-01T07:15:37;96862.09;;;9.89;91.80
6668;BME280;3370;47.712;9.082;2022-10-01T07:18:04;96855.78;;;9.96;91.13
6668;BME280;3370;47.712;9.082;2022-10-01T07:20:31;96852.25;;;9.99;92.89
6668;BME280;3370;47.712;9.082;2022-10-01T07:23:00;96862.09;;;10.08;93.43
6668;BME280;3370;47.712;9.082;2022-10-01T07:25:27;96860.72;;;10.01;92.59
6668;BME280;3370;47.712;9.082;2022-10-01T07:27:59;96860.78;;;10.00;91.89
6668;BME280;3370;47.712;9.082;2022-10-01T07:30:26;96878.94;;;9.95;91.84
6668;BME280;3370;47.712;9.082;2022-10-01T07:32:52;96878.19;;;9.93;93.50
6668;BME280;3370;47.712;9.082;2022-10-01T07:35:19;96878.34;;;9.90;94.07
6668;BME280;3370;47.712;9.082;2022-10-01T07:37:47;96888.34;;;9.96;93.54
6668;BME280;3370;47.712;9.082;2022-10-01T07:40:13;96883.31;;;9.93;93.83
6668;BME280;3370;47.712;9.082;2022-10-01T07:42:41;96884.25;;;9.92;93.67
6668;BME280;3370;47.712;9.082;2022-10-01T07:45:08;96874.16;;;9.87;94.54
6668;BME280;3370;47.712;9.082;2022-10-01T07:47:34;96869.84;;;9.88;93.75
6668;BME280;3370;47.712;9.082;2022-10-01T07:50:00;96861.25;;;9.89;94.54
6668;BME280;3370;47.712;9.082;2022-10-01T07:52:26;96871.81;;;9.83;95.06
6668;BME280;3370;47.712;9.082;2022-10-01T07:54:52;96866.13;;;9.76;94.46
6668;BME280;3370;47.712;9.082;2022-10-01T07:57:18;96864.44;;;9.75;94.05
6668;BME280;3370;47.712;9.082;2022-10-01T07:59:43;96868.63;;;9.77;95.18
6668;BME280;3370;47.712;9.082;2022-10-01T08:02:16;96868.34;;;9.65;95.17
6668;BME280;3370;47.712;9.082;2022-10-01T08:04:43;96872.78;;;9.61;93.27
6668;BME280;3370;47.712;9.082;2022-10-01T08:07:30;96860.53;;;9.66;94.87
6668;BME280;3370;47.712;9.082;2022-10-01T08:09:56;96871.22;;;9.57;94.18
6668;BME280;3370;47.712;9.082;2022-10-01T08:12:22;96865.69;;;9.66;94.55
6668;BME280;3370;47.712;9.082;2022-10-01T08:14:49;96871.59;;;9.68;97.09
6668;BME280;3370;47.712;9.082;2022-10-01T08:17:14;96860.69;;;9.63;95.53
6668;BME280;3370;47.712;9.082;2022-10-01T08:19:40;96861.66;;;9.60;96.88
6668;BME280;3370;47.712;9.082;2022-10-01T08:22:06;96853.19;;;9.58;96.52
6668;BME280;3370;47.712;9.082;2022-10-01T08:24:32;96869.28;;;9.62;97.15
6668;BME280;3370;47.712;9.082;2022-10-01T08:27:01;96860.75;;;9.62;96.77
6668;BME280;3370;47.712;9.082;2022-10-01T08:29:27;96863.19;;;9.65;98.64
6668;BME280;3370;47.712;9.082;2022-10-01T08:31:53;96867.94;;;9.74;99.42
6668;BME280;3370;47.712;9.082;2022-10-01T08:34:19;96859.66;;;9.67;96.03
6668;BME280;3370;47.712;9.082;2022-10-01T08:36:48;96857.09;;;9.67;99.14
6668;BME280;3370;47.712;9.082;2022-10-01T08:39:15;96865.84;;;9.63;99.62
6668;BME280;3370;47.712;9.082;2022-10-01T08:42:02;96856.72;;;9.56;98.24
6668;BME280;3370;47.712;9.082;2022-10-01T08:44:37;96857.91;;;9.68;96.07
6668;BME280;3370;47.712;9.082;2022-10-01T08:47:28;96849.72;;;9.78;98.99
6668;BME280;3370;47.712;9.082;2022-10-01T08:52:47;96852.06;;;9.64;95.63
6668;BME280;3370;47.712;9.082;2022-10-01T08:55:23;96847.63;;;9.68;95.38
6668;BME280;3370;47.712;9.082;2022-10-01T08:57:55;96848.50;;;9.68;97.08
6668;BME280;3370;47.712;9.082;2022-10-01T09:00:22;96855.16;;;9.72;97.60
6668;BME280;3370;47.712;9.082;2022-10-01T09:02:49;96848.22;;;9.74;96.72
6668;BME280;3370;47.712;9.082;2022-10-01T09:12:12;96843.78;;;9.78;95.49
6668;BME280;3370;47.712;9.082;2022-10-01T09:17:30;96860.56;;;9.85;94.56
6668;BME280;3370;47.712;9.082;2022-10-01T09:23:15;96848.34;;;9.90;94.36
6668;BME280;3370;47.712;9.082;2022-10-01T09:25:44;96842.66;;;10.03;95.44
6668;BME280;3370;47.712;9.082;2022-10-01T09:28:28;96852.25;;;9.99;96.04
6668;BME280;3370;47.712;9.082;2022-10-01T09:33:42;96839.19;;;10.04;94.52
6668;BME280;3370;47.712;9.082;2022-10-01T09:39:22;96847.50;;;10.09;94.35
6668;BME280;3370;47.712;9.082;2022-10-01T09:41:50;96854.31;;;10.10;93.79
6668;BME280;3370;47.712;9.082;2022-10-01T09:44:22;96860.97;;;10.14;94.28
6668;BME280;3370;47.712;9.082;2022-10-01T09:46:51;96863.31;;;10.18;92.98
6668;BME280;3370;47.712;9.082;2022-10-01T09:49:38;96861.66;;;10.17;94.65
6668;BME280;3370;47.712;9.082;2022-10-01T09:52:35;96862.50;;;10.18;93.68
6668;BME280;3370;47.712;9.082;2022-10-01T09:58:15;96852.97;;;10.20;91.50
6668;BME280;3370;47.712;9.082;2022-10-01T10:00:43;96863.06;;;10.25;94.06
6668;BME280;3370;47.712;9.082;2022-10-01T10:03:23;96857.75;;;10.28;91.68
6668;BME280;3370;47.712;9.082;2022-10-01T10:05:50;96866.19;;;10.31;93.85
6668;BME280;3370;47.712;9.082;2022-10-01T10:11:07;96864.22;;;10.36;91.37
6668;BME280;3370;47.712;9.082;2022-10-01T10:13:35;96870.69;;;10.45;91.80
6668;BME280;3370;47.712;9.082;2022-10-01T10:19:00;96856.75;;;10.49;91.70
6668;BME280;3370;47.712;9.082;2022-10-01T10:21:30;96862.22;;;10.43;91.44
6668;BME280;3370;47.712;9.082;2022-10-01T10:24:05;96880.81;;;10.48;91.25
6668;BME280;3370;47.712;9.082;2022-10-01T10:26:35;96878.19;;;10.50;91.47
6668;BME280;3370;47.712;9.082;2022-10-01T10:29:05;96868.59;;;10.53;92.26
6668;BME280;3370;47.712;9.082;2022-10-01T10:31:41;96881.91;;;10.62;92.39
6668;BME280;3370;47.712;9.082;2022-10-01T10:34:41;96884.91;;;10.52;91.14
6668;BME280;3370;47.712;9.082;2022-10-01T10:37:15;96883.56;;;10.63;92.34
6668;BME280;3370;47.712;9.082;2022-10-01T10:39:47;96882.44;;;10.68;93.67
6668;BME280;3370;47.712;9.082;2022-10-01T10:42:16;96876.88;;;10.59;93.67
6668;BME280;3370;47.712;9.082;2022-10-01T10:44:46;96885.66;;;10.54;93.66
6668;BME280;3370;47.712;9.082;2022-10-01T10:47:16;96886.06;;;10.64;94.64
6668;BME280;3370;47.712;9.082;2022-10-01T10:52:30;96886.59;;;10.53;93.31
6668;BME280;3370;47.712;9.082;2022-10-01T10:55:00;96884.00;;;10.53;91.88
6668;BME280;3370;47.712;9.082;2022-10-01T10:57:32;96881.06;;;10.61;91.31
6668;BME280;3370;47.712;9.082;2022-10-01T11:00:16;96889.09;;;10.72;90.14
6668;BME280;3370;47.712;9.082;2022-10-01T11:03:01;96881.75;;;10.82;90.51
6668;BME280;3370;47.712;9.082;2022-10-01T11:05:31;96899.75;;;10.82;89.54
6668;BME280;3370;47.712;9.082;2022-10-01T11:08:09;96895.09;;;10.90;86.71
6668;BME280;3370;47.712;9.082;2022-10-01T11:28:36;96897.03;;;10.85;90.02
6668;BME280;3370;47.712;9.082;2022-10-01T11:37:00;96898.44;;;11.10;86.63
6668;BME280;3370;47.712;9.082;2022-10-01T11:39:33;96894.03;;;11.12;86.88
6668;BME280;3370;47.712;9.082;2022-10-01T11:42:18;96906.91;;;11.12;85.49
6668;BME280;3370;47.712;9.082;2022-10-01T11:45:08;96916.50;;;11.08;85.87
6668;BME280;3370;47.712;9.082;2022-10-01T11:47:56;96910.97;;;11.16;86.18
6668;BME280;3370;47.712;9.082;2022-10-01T11:50:28;96918.41;;;11.22;86.38
6668;BME280;3370;47.712;9.082;2022-10-01T11:53:31;96923.47;;;11.24;86.39
6668;BME280;3370;47.712;9.082;2022-10-01T11:56:06;96926.34;;;11.18;86.56
6668;BME280;3370;47.712;9.082;2022-10-01T11:59:23;96911.59;;;11.21;85.47
6668;BME280;3370;47.712;9.082;2022-10-01T12:04:57;96909.03;;;11.21;85.14
6668;BME280;3370;47.712;9.082;2022-10-01T12:07:52;96910.59;;;11.24;84.69
6668;BME280;3370;47.712;9.082;2022-10-01T12:10:36;96918.84;;;11.30;83.74
6668;BME280;3370;47.712;9.082;2022-10-01T12:19:17;96926.66;;;11.46;87.41
6668;BME280;3370;47.712;9.082;2022-10-01T12:22:14;96927.47;;;11.47;85.85
6668;BME280;3370;47.712;9.082;2022-10-01T12:24:43;96932.47;;;11.50;86.47
6668;BME280;3370;47.712;9.082;2022-10-01T12:30:20;96940.94;;;11.52;86.30
6668;BME280;3370;47.712;9.082;2022-10-01T12:33:15;96933.38;;;11.49;88.33
6668;BME280;3370;47.712;9.082;2022-10-01T12:50:03;96935.97;;;11.14;92.21
6668;BME280;3370;47.712;9.082;2022-10-01T12:57:53;96916.50;;;11.08;94.28
6668;BME280;3370;47.712;9.082;2022-10-01T13:00:28;96917.50;;;11.06;98.53
6668;BME280;3370;47.712;9.082;2022-10-01T13:03:45;96901.81;;;10.93;100.00
6668;BME280;3370;47.712;9.082;2022-10-01T13:09:25;96910.91;;;10.83;100.00
6668;BME280;3370;47.712;9.082;2022-10-01T13:15:14;96923.28;;;10.57;100.00
6668;BME280;3370;47.712;9.082;2022-10-01T13:20:34;96912.50;;;10.49;100.00
6668;BME280;3370;47.712;9.082;2022-10-01T13:23:30;96918.25;;;10.54;100.00
6668;BME280;3370;47.712;9.082;2022-10-01T13:26:08;96908.16;;;10.68;100.00
6668;BME280;3370;47.712;9.082;2022-10-01T13:31:57;96921.78;;;10.70;100.00
6668;BME280;3370;47.712;9.082;2022-10-01T13:39:46;96927.13;;;10.66;100.00
6668;BME280;3370;47.712;9.082;2022-10-01T13:42:18;96940.34;;;10.58;100.00
6668;BME280;3370;47.712;9.082;2022-10-01T13:44:58;96932.56;;;10.60;100.00
6668;BME280;3370;47.712;9.082;2022-10-01T13:47:27;96931.66;;;10.61;100.00
6668;BME280;3370;47.712;9.082;2022-10-01T13:50:00;96929.09;;;10.61;100.00
6668;BME280;3370;47.712;9.082;2022-10-01T13:52:29;96929.78;;;10.64;100.00
6668;BME280;3370;47.712;9.082;2022-10-01T13:54:58;96920.53;;;10.60;100.00
6668;BME280;3370;47.712;9.082;2022-10-01T13:57:35;96935.56;;;10.50;100.00
6668;BME280;3370;47.712;9.082;2022-10-01T14:02:40;96938.75;;;10.55;100.00
6668;BME280;3370;47.712;9.082;2022-10-01T14:08:23;96941.97;;;10.61;100.00
6668;BME280;3370;47.712;9.082;2022-10-01T14:13:53;96946.31;;;10.59;100.00
6668;BME280;3370;47.712;9.082;2022-10-01T14:16:46;96965.16;;;10.59;100.00
6668;BME280;3370;47.712;9.082;2022-10-01T14:19:20;96955.69;;;10.60;100.00
6668;BME280;3370;47.712;9.082;2022-10-01T14:22:12;96953.19;;;10.77;100.00
6668;BME280;3370;47.712;9.082;2022-10-01T14:25:35;96966.13;;;10.76;100.00
6668;BME280;3370;47.712;9.082;2022-10-01T14:28:23;96974.03;;;10.71;100.00
6668;BME280;3370;47.712;9.082;2022-10-01T14:32:02;96972.78;;;10.80;100.00
6668;BME280;3370;47.712;9.082;2022-10-01T14:37:11;96973.75;;;10.77;100.00
6668;BME280;3370;47.712;9.082;2022-10-01T14:39:37;96976.25;;;10.79;100.00
6668;BME280;3370;47.712;9.082;2022-10-01T14:42:15;96971.31;;;10.74;100.00
6668;BME280;3370;47.712;9.082;2022-10-01T14:44:44;96969.50;;;10.76;100.00
6668;BME280;3370;47.712;9.082;2022-10-01T14:47:19;96973.06;;;10.73;100.00
6668;BME280;3370;47.712;9.082;2022-10-01T14:49:46;96970.94;;;10.64;100.00
6668;BME280;3370;47.712;9.082;2022-10-01T14:52:23;96970.84;;;10.66;100.00
6668;BME280;3370;47.712;9.082;2022-10-01T14:57:38;96977.59;;;10.68;100.00
6668;BME280;3370;47.712;9.082;2022-10-01T15:00:17;96990.84;;;10.78;100.00
6668;BME280;3370;47.712;9.082;2022-10-01T15:03:00;96982.06;;;10.82;100.00
6668;BME280;3370;47.712;9.082;2022-10-01T15:05:33;96966.50;;;10.85;100.00
6668;BME280;3370;47.712;9.082;2022-10-01T15:08:18;96986.94;;;10.88;100.00
6668;BME280;3370;47.712;9.082;2022-10-01T15:10:56;96978.16;;;10.92;100.00
6668;BME280;3370;47.712;9.082;2022-10-01T15:13:30;96982.41;;;10.93;100.00
6668;BME280;3370;47.712;9.082;2022-10-01T15:15:58;96981.22;;;11.01;100.00
6668;BME280;3370;47.712;9.082;2022-10-01T15:18:24;96980.91;;;11.07;100.00
6668;BME280;3370;47.712;9.082;2022-10-01T15:21:17;96988.78;;;11.04;100.00
6668;BME280;3370;47.712;9.082;2022-10-01T15:23:46;96991.50;;;11.01;100.00
6668;BME280;3370;47.712;9.082;2022-10-01T15:26:21;96965.47;;;11.07;100.00
6668;BME280;3370;47.712;9.082;2022-10-01T15:28:48;96974.13;;;11.06;100.00
6668;BME280;3370;47.712;9.082;2022-10-01T15:31:14;96976.47;;;11.10;100.00
6668;BME280;3370;47.712;9.082;2022-10-01T15:33:42;96977.97;;;11.15;100.00
6668;BME280;3370;47.712;9.082;2022-10-01T15:36:15;96987.56;;;11.11;100.00
6668;BME280;3370;47.712;9.082;2022-10-01T15:38:46;96979.25;;;11.06;100.00
6668;BME280;3370;47.712;9.082;2022-10-01T15:41:29;96984.09;;;11.12;100.00
6668;BME280;3370;47.712;9.082;2022-10-01T15:44:03;96988.25;;;11.15;100.00
6668;BME280;3370;47.712;9.082;2022-10-01T15:46:31;96982.28;;;11.14;100.00
6668;BME280;3370;47.712;9.082;2022-10-01T15:49:20;96980.34;;;11.19;100.00
6668;BME280;3370;47.712;9.082;2022-10-01T15:52:01;96986.31;;;11.20;100.00
6668;BME280;3370;47.712;9.082;2022-10-01T15:54:47;96998.34;;;11.19;100.00
6668;BME280;3370;47.712;9.082;2022-10-01T15:57:23;96999.25;;;11.18;100.00
6668;BME280;3370;47.712;9.082;2022-10-01T15:59:52;97010.91;;;11.25;100.00
6668;BME280;3370;47.712;9.082;2022-10-01T16:02:26;97007.13;;;11.32;100.00
6668;BME280;3370;47.712;9.082;2022-10-01T16:05:04;97014.09;;;11.30;100.00
6668;BME280;3370;47.712;9.082;2022-10-01T16:07:31;97019.84;;;11.36;100.00